YTWA weather

Trawalla Airport
Victoria, Australia

Public forecast

Using degrees Celsius for public forecast. Weather courtesy of forecast.io.

METAR (pilot weather report)

Closest report is Avalon Airport, 60.0 nm (111.1 km) SE. Retrieved 2019/05/26 17:35 UTC (0 seconds ago):

YMAV 261735Z AUTO 29019G30KT 9999 // SCT029 BKN036 BKN047 08/04 Q1005

TAF (pilot weather forecast)

Forecast is more than 12 hours old.

Closest forecast is Avalon Airport, 60.0 nm (111.1 km) SE. Retrieved 2019/05/25 00:36 UTC (2 days ago):

TAF YMAV 252333Z 2600/2624 32022G36KT 9999 FEW045 SCT060 FM261000 28028G42KT 8000 SHRA SCT020 BKN040 FM261200 28018G28KT 9999 -SHRA SCT030 SCT050 TEMPO 2610/2612 3000 SHRA BKN020 INTER 2619/2624 5000 SHRA BKN025